FFS weather

FFS Field
Bald Knob, Arkansas, United States

Public forecast

Using degrees Fahrenheit for public forecast. Weather courtesy of forecast.io.

Closest aviation weather report (METAR) to FFS Field

Report is more than 6 hours old.

Closest report is Searcy Municipal Airport, 10.8 nm (20.1 km) WSW. Retrieved 2019/12/05 10:56 UTC (2 days ago):

KSRC 051056Z AUTO 00000KT 10SM CLR 06/05 A3008 RMK AO2 SLP193 T00560050

Closest aviation forecast (TAF) to FFS Field

Forecast is more than 6 hours old.

Closest forecast is Little Rock Air Force Base, 37.4 nm (69.2 km) SW. Retrieved 2019/12/07 07:06 UTC (7 hours ago):

TAF TAF KLRF 070700Z 0707/0813 02009KT 9999 SKC QNH3032INS BECMG 0709/0710 02006KT 9999 FEW010 QNH3024INS BECMG 0801/0802 03006KT 9999 BKN015 QNH3014INS TX12/0721Z TN03/0713Z